Terminal Aerodrome Forecast
Issued by NWS North Platte, NE

Home | Current Version | Previous Version | Text Only | Print | Product List | Glossary Off
Versions: 1 2 3 4 5 6 7 8 9 10 11

933
FTUS43 KLBF 151720
TAFVTN
TAF
KVTN 151720Z 1518/1618 33018G26KT P6SM BKN010
     FM151900 33018G27KT P6SM SCT010 SCT120
     FM160300 33012KT P6SM FEW250
     FM160800 32008KT P6SM FEW250
     FM161300 29004KT P6SM SKC=

USA.gov is the U.S. government's official web portal to all federal, state and local government web resources and services.